Main page
METAR-TAF:

METAR-TAF

Airports :

Norwich Airport

Norwich, England

latitude: 52-38N, longitude: 001-18E, elevation: 14 m

Current weather observation

The report was made 24 minutes ago, at 08:50 UTC
Wind 7 kt from the West
Temperature 7°C
Humidity 81%
Pressure 1033 hPa
Visibility 10 km or more
no clouds below 1500 m and no cumulonimbus

METAR: EGSH 260850Z 27007KT CAVOK 07/04 Q1033 NOSIG

Time: 09:14 (09:14 UTC)

Forecast

The report was made 1 hour and 16 minutes ago, at 07:58 UTC
Forecast valid from 26 at 09 UTC to 26 at 18 UTC
Wind 5 kt from the West
Visibility 10 km or more
no clouds below 1500 m and no cumulonimbus
Becoming
from 26 at 12 UTC to 26 at 15 UTC
Broken clouds at a height of 3500 ft

TAF: EGSH 260758Z 2609/2618 26005KT CAVOK BECMG 2612/2615 BKN035

Weather observations and forecasts of more than 4000 airports (METAR and TAF reports).

The available stations are represented by yellow and red dots on the map.

Hover mouse over dot to see the name of the station.

Then click to see weather observations and forecasts.

To change the map : click on the green buttons with a black cross to zoom in, on the green button with a dash to zoom out, or on the green arrows for adjacent maps.


METAR-TAF: